sensor_id;sensor_type;location;lat;lon;timestamp;temperature;humidity
66710;DHT22;53624;0.000;0.000;2023-04-01T00:00:28;16.40;94.80
66710;DHT22;53624;0.000;0.000;2023-04-01T00:02:56;16.40;94.80
66710;DHT22;53624;0.000;0.000;2023-04-01T00:05:24;16.40;94.90
66710;DHT22;53624;0.000;0.000;2023-04-01T00:07:51;16.40;94.90
66710;DHT22;53624;0.000;0.000;2023-04-01T00:10:19;16.40;95.00
66710;DHT22;53624;0.000;0.000;2023-04-01T00:12:46;16.30;95.00
66710;DHT22;53624;0.000;0.000;2023-04-01T00:15:14;16.30;95.00
66710;DHT22;53624;0.000;0.000;2023-04-01T00:17:41;16.30;95.00
66710;DHT22;53624;0.000;0.000;2023-04-01T00:20:11;16.30;95.00
66710;DHT22;53624;0.000;0.000;2023-04-01T00:22:40;16.30;95.00
66710;DHT22;53624;0.000;0.000;2023-04-01T00:25:08;16.30;95.00
66710;DHT22;53624;0.000;0.000;2023-04-01T00:27:35;16.30;95.00
66710;DHT22;53624;0.000;0.000;2023-04-01T00:30:03;16.30;95.00
66710;DHT22;53624;0.000;0.000;2023-04-01T00:32:31;16.30;95.10
66710;DHT22;53624;0.000;0.000;2023-04-01T00:34:58;16.30;95.10
66710;DHT22;53624;0.000;0.000;2023-04-01T00:37:27;16.30;95.00
66710;DHT22;53624;0.000;0.000;2023-04-01T00:39:55;16.20;95.00
66710;DHT22;53624;0.000;0.000;2023-04-01T00:42:23;16.20;95.10
66710;DHT22;53624;0.000;0.000;2023-04-01T00:44:52;16.20;95.10
66710;DHT22;53624;0.000;0.000;2023-04-01T00:47:20;16.20;95.00
66710;DHT22;53624;0.000;0.000;2023-04-01T00:49:48;16.20;95.00
66710;DHT22;53624;0.000;0.000;2023-04-01T00:52:17;16.20;95.30
66710;DHT22;53624;0.000;0.000;2023-04-01T00:54:48;16.20;95.00
66710;DHT22;53624;0.000;0.000;2023-04-01T00:57:18;16.10;95.00
66710;DHT22;53624;0.000;0.000;2023-04-01T00:59:47;16.10;95.00
66710;DHT22;53624;0.000;0.000;2023-04-01T01:02:15;16.20;95.00
66710;DHT22;53624;0.000;0.000;2023-04-01T01:04:43;16.10;95.10
66710;DHT22;53624;0.000;0.000;2023-04-01T01:07:13;16.10;95.00
66710;DHT22;53624;0.000;0.000;2023-04-01T01:09:45;16.10;95.10
66710;DHT22;53624;0.000;0.000;2023-04-01T01:12:17;16.10;95.10
66710;DHT22;53624;0.000;0.000;2023-04-01T01:14:51;16.10;95.10
66710;DHT22;53624;0.000;0.000;2023-04-01T01:17:23;16.10;95.10
66710;DHT22;53624;0.000;0.000;2023-04-01T01:19:57;16.10;95.10
66710;DHT22;53624;0.000;0.000;2023-04-01T01:22:34;16.00;95.10
66710;DHT22;53624;0.000;0.000;2023-04-01T01:27:57;16.00;95.20
66710;DHT22;53624;0.000;0.000;2023-04-01T01:30:31;16.00;95.20
66710;DHT22;53624;0.000;0.000;2023-04-01T01:33:13;16.00;95.20
66710;DHT22;53624;0.000;0.000;2023-04-01T01:35:45;16.00;95.20
66710;DHT22;53624;0.000;0.000;2023-04-01T01:38:18;16.00;95.20
66710;DHT22;53624;0.000;0.000;2023-04-01T01:40:54;16.00;95.20
66710;DHT22;53624;0.000;0.000;2023-04-01T01:43:24;15.90;95.20
66710;DHT22;53624;0.000;0.000;2023-04-01T01:45:54;15.90;95.20
66710;DHT22;53624;0.000;0.000;2023-04-01T01:48:22;15.90;95.30
66710;DHT22;53624;0.000;0.000;2023-04-01T01:50:52;15.90;95.20
66710;DHT22;53624;0.000;0.000;2023-04-01T01:53:20;15.90;95.30
66710;DHT22;53624;0.000;0.000;2023-04-01T01:55:48;15.90;95.30
66710;DHT22;53624;0.000;0.000;2023-04-01T01:58:17;15.90;95.30
66710;DHT22;53624;0.000;0.000;2023-04-01T02:00:48;15.90;95.30
66710;DHT22;53624;0.000;0.000;2023-04-01T02:03:17;15.90;95.30
66710;DHT22;53624;0.000;0.000;2023-04-01T02:05:44;15.90;95.30
66710;DHT22;53624;0.000;0.000;2023-04-01T02:08:14;15.80;95.30
66710;DHT22;53624;0.000;0.000;2023-04-01T02:10:45;15.80;95.30
66710;DHT22;53624;0.000;0.000;2023-04-01T02:13:17;15.80;95.30
66710;DHT22;53624;0.000;0.000;2023-04-01T02:15:47;15.80;95.30
66710;DHT22;53624;0.000;0.000;2023-04-01T02:18:16;15.80;95.30
66710;DHT22;53624;0.000;0.000;2023-04-01T02:20:44;15.80;95.30
66710;DHT22;53624;0.000;0.000;2023-04-01T02:23:14;15.80;95.30
66710;DHT22;53624;0.000;0.000;2023-04-01T02:25:41;15.80;95.30
66710;DHT22;53624;0.000;0.000;2023-04-01T02:28:10;15.80;95.30
66710;DHT22;53624;0.000;0.000;2023-04-01T02:30:40;15.70;95.30
66710;DHT22;53624;0.000;0.000;2023-04-01T02:33:08;15.80;95.30
66710;DHT22;53624;0.000;0.000;2023-04-01T02:35:36;15.70;95.20
66710;DHT22;53624;0.000;0.000;2023-04-01T02:38:03;15.70;95.30
66710;DHT22;53624;0.000;0.000;2023-04-01T02:40:42;15.70;95.20
66710;DHT22;53624;0.000;0.000;2023-04-01T02:43:09;15.70;95.30
66710;DHT22;53624;0.000;0.000;2023-04-01T02:45:37;15.70;95.20
66710;DHT22;53624;0.000;0.000;2023-04-01T02:48:05;15.70;95.20
66710;DHT22;53624;0.000;0.000;2023-04-01T02:50:32;15.70;95.20
66710;DHT22;53624;0.000;0.000;2023-04-01T02:53:00;15.70;95.30
66710;DHT22;53624;0.000;0.000;2023-04-01T02:55:28;15.70;95.20
66710;DHT22;53624;0.000;0.000;2023-04-01T02:57:58;15.60;95.20
66710;DHT22;53624;0.000;0.000;2023-04-01T03:00:26;15.70;95.20
66710;DHT22;53624;0.000;0.000;2023-04-01T03:02:54;15.60;95.20
66710;DHT22;53624;0.000;0.000;2023-04-01T03:05:22;15.60;95.20
66710;DHT22;53624;0.000;0.000;2023-04-01T03:07:49;15.60;95.20
66710;DHT22;53624;0.000;0.000;2023-04-01T03:10:17;15.60;95.20
66710;DHT22;53624;0.000;0.000;2023-04-01T03:12:44;15.60;95.20
66710;DHT22;53624;0.000;0.000;2023-04-01T03:15:13;15.60;95.20
66710;DHT22;53624;0.000;0.000;2023-04-01T03:17:41;15.60;95.20
66710;DHT22;53624;0.000;0.000;2023-04-01T03:20:10;15.60;95.20
66710;DHT22;53624;0.000;0.000;2023-04-01T03:22:38;15.60;95.20
66710;DHT22;53624;0.000;0.000;2023-04-01T03:25:06;15.60;95.20
66710;DHT22;53624;0.000;0.000;2023-04-01T03:27:34;15.60;95.10
66710;DHT22;53624;0.000;0.000;2023-04-01T03:30:02;15.60;95.10
66710;DHT22;53624;0.000;0.000;2023-04-01T03:32:39;15.60;95.00
66710;DHT22;53624;0.000;0.000;2023-04-01T03:35:07;15.60;95.10
66710;DHT22;53624;0.000;0.000;2023-04-01T03:37:35;15.50;95.00
66710;DHT22;53624;0.000;0.000;2023-04-01T03:40:03;15.50;95.00
66710;DHT22;53624;0.000;0.000;2023-04-01T03:42:32;15.50;95.00
66710;DHT22;53624;0.000;0.000;2023-04-01T03:44:59;15.50;95.00
66710;DHT22;53624;0.000;0.000;2023-04-01T03:47:27;15.60;95.00
66710;DHT22;53624;0.000;0.000;2023-04-01T03:49:56;15.50;95.00
66710;DHT22;53624;0.000;0.000;2023-04-01T03:52:23;15.50;95.00
66710;DHT22;53624;0.000;0.000;2023-04-01T03:54:51;15.50;95.00
66710;DHT22;53624;0.000;0.000;2023-04-01T03:57:18;15.50;95.00
66710;DHT22;53624;0.000;0.000;2023-04-01T03:59:46;15.50;94.90
66710;DHT22;53624;0.000;0.000;2023-04-01T04:02:13;15.50;95.00
66710;DHT22;53624;0.000;0.000;2023-04-01T04:04:41;15.50;94.90
66710;DHT22;53624;0.000;0.000;2023-04-01T04:07:10;15.50;94.90
66710;DHT22;53624;0.000;0.000;2023-04-01T04:09:58;15.50;94.90
66710;DHT22;53624;0.000;0.000;2023-04-01T04:12:25;15.50;95.00
66710;DHT22;53624;0.000;0.000;2023-04-01T04:14:53;15.50;95.00
66710;DHT22;53624;0.000;0.000;2023-04-01T04:17:21;15.50;95.00
66710;DHT22;53624;0.000;0.000;2023-04-01T04:19:48;15.50;95.00
66710;DHT22;53624;0.000;0.000;2023-04-01T04:22:17;15.50;95.00
66710;DHT22;53624;0.000;0.000;2023-04-01T04:24:45;15.50;95.00
66710;DHT22;53624;0.000;0.000;2023-04-01T04:27:13;15.40;94.90
66710;DHT22;53624;0.000;0.000;2023-04-01T04:29:55;15.40;94.90
66710;DHT22;53624;0.000;0.000;2023-04-01T04:32:22;15.40;94.90
66710;DHT22;53624;0.000;0.000;2023-04-01T04:34:50;15.40;94.90
66710;DHT22;53624;0.000;0.000;2023-04-01T04:37:20;15.40;94.90
66710;DHT22;53624;0.000;0.000;2023-04-01T04:39:47;15.40;94.90
66710;DHT22;53624;0.000;0.000;2023-04-01T04:42:15;15.40;94.80
66710;DHT22;53624;0.000;0.000;2023-04-01T04:44:43;15.40;94.90
66710;DHT22;53624;0.000;0.000;2023-04-01T04:47:10;15.40;94.90
66710;DHT22;53624;0.000;0.000;2023-04-01T04:49:38;15.40;94.90
66710;DHT22;53624;0.000;0.000;2023-04-01T04:52:09;15.40;94.80
66710;DHT22;53624;0.000;0.000;2023-04-01T04:54:38;15.40;94.80
66710;DHT22;53624;0.000;0.000;2023-04-01T04:57:05;15.40;94.80
66710;DHT22;53624;0.000;0.000;2023-04-01T04:59:39;15.40;94.80
66710;DHT22;53624;0.000;0.000;2023-04-01T05:02:12;15.40;94.80
66710;DHT22;53624;0.000;0.000;2023-04-01T05:04:39;15.40;94.80
66710;DHT22;53624;0.000;0.000;2023-04-01T05:07:09;15.40;94.80
66710;DHT22;53624;0.000;0.000;2023-04-01T05:09:38;15.40;94.80
66710;DHT22;53624;0.000;0.000;2023-04-01T05:12:06;15.40;94.80
66710;DHT22;53624;0.000;0.000;2023-04-01T05:14:55;15.40;94.80
66710;DHT22;53624;0.000;0.000;2023-04-01T05:17:23;15.30;94.80
66710;DHT22;53624;0.000;0.000;2023-04-01T05:19:50;15.30;94.80
66710;DHT22;53624;0.000;0.000;2023-04-01T05:22:18;15.30;94.80
66710;DHT22;53624;0.000;0.000;2023-04-01T05:24:47;15.30;94.80
66710;DHT22;53624;0.000;0.000;2023-04-01T05:27:15;15.30;94.80
66710;DHT22;53624;0.000;0.000;2023-04-01T05:29:43;15.30;94.80
66710;DHT22;53624;0.000;0.000;2023-04-01T05:32:33;15.30;94.80
66710;DHT22;53624;0.000;0.000;2023-04-01T05:35:00;15.30;94.70
66710;DHT22;53624;0.000;0.000;2023-04-01T05:37:28;15.30;94.70
66710;DHT22;53624;0.000;0.000;2023-04-01T05:39:57;15.30;94.60
66710;DHT22;53624;0.000;0.000;2023-04-01T05:42:25;15.30;94.60
66710;DHT22;53624;0.000;0.000;2023-04-01T05:44:53;15.30;94.60
66710;DHT22;53624;0.000;0.000;2023-04-01T05:47:40;15.30;94.60
66710;DHT22;53624;0.000;0.000;2023-04-01T05:50:08;15.30;94.50
66710;DHT22;53624;0.000;0.000;2023-04-01T05:52:36;15.30;94.50
66710;DHT22;53624;0.000;0.000;2023-04-01T05:55:06;15.30;94.40
66710;DHT22;53624;0.000;0.000;2023-04-01T05:57:34;15.30;94.40
66710;DHT22;53624;0.000;0.000;2023-04-01T06:00:03;15.30;94.30
66710;DHT22;53624;0.000;0.000;2023-04-01T06:02:38;15.30;94.30
66710;DHT22;53624;0.000;0.000;2023-04-01T06:05:15;15.30;94.20
66710;DHT22;53624;0.000;0.000;2023-04-01T06:07:43;15.30;94.10
66710;DHT22;53624;0.000;0.000;2023-04-01T06:10:13;15.30;94.10
66710;DHT22;53624;0.000;0.000;2023-04-01T06:12:45;15.30;94.10
66710;DHT22;53624;0.000;0.000;2023-04-01T06:15:18;15.30;94.10
66710;DHT22;53624;0.000;0.000;2023-04-01T06:17:51;15.30;94.00
66710;DHT22;53624;0.000;0.000;2023-04-01T06:20:24;15.30;93.90
66710;DHT22;53624;0.000;0.000;2023-04-01T06:25:43;15.30;93.90
66710;DHT22;53624;0.000;0.000;2023-04-01T06:28:26;15.30;93.80
66710;DHT22;53624;0.000;0.000;2023-04-01T06:30:58;15.30;93.80
66710;DHT22;53624;0.000;0.000;2023-04-01T06:33:35;15.30;93.70
66710;DHT22;53624;0.000;0.000;2023-04-01T06:36:10;15.30;93.70
66710;DHT22;53624;0.000;0.000;2023-04-01T06:41:44;15.40;93.60
66710;DHT22;53624;0.000;0.000;2023-04-01T06:44:18;15.40;93.60
66710;DHT22;53624;0.000;0.000;2023-04-01T06:47:10;15.40;93.50
66710;DHT22;53624;0.000;0.000;2023-04-01T06:50:17;15.40;93.60
66710;DHT22;53624;0.000;0.000;2023-04-01T06:53:06;15.50;93.70
66710;DHT22;53624;0.000;0.000;2023-04-01T06:55:57;15.60;93.60
66710;DHT22;53624;0.000;0.000;2023-04-01T06:58:48;15.60;93.50
66710;DHT22;53624;0.000;0.000;2023-04-01T07:01:19;15.60;93.60
66710;DHT22;53624;0.000;0.000;2023-04-01T07:03:49;15.70;93.50
66710;DHT22;53624;0.000;0.000;2023-04-01T07:06:20;15.70;93.50
66710;DHT22;53624;0.000;0.000;2023-04-01T07:08:53;15.70;93.50
66710;DHT22;53624;0.000;0.000;2023-04-01T07:11:24;15.70;93.50
66710;DHT22;53624;0.000;0.000;2023-04-01T07:14:33;15.70;93.50
66710;DHT22;53624;0.000;0.000;2023-04-01T07:17:03;15.80;93.50
66710;DHT22;53624;0.000;0.000;2023-04-01T07:19:34;15.80;93.60
66710;DHT22;53624;0.000;0.000;2023-04-01T07:22:10;15.80;93.60
66710;DHT22;53624;0.000;0.000;2023-04-01T07:25:01;15.90;93.60
66710;DHT22;53624;0.000;0.000;2023-04-01T07:27:29;15.90;93.50
66710;DHT22;53624;0.000;0.000;2023-04-01T07:29:59;15.90;93.50
66710;DHT22;53624;0.000;0.000;2023-04-01T07:32:31;15.90;93.50
66710;DHT22;53624;0.000;0.000;2023-04-01T07:35:07;16.00;93.60
66710;DHT22;53624;0.000;0.000;2023-04-01T07:37:38;15.90;93.60
66710;DHT22;53624;0.000;0.000;2023-04-01T07:40:12;15.90;93.70
66710;DHT22;53624;0.000;0.000;2023-04-01T07:42:47;15.90;93.70
66710;DHT22;53624;0.000;0.000;2023-04-01T07:45:23;15.90;93.70
66710;DHT22;53624;0.000;0.000;2023-04-01T07:47:55;15.90;93.70
66710;DHT22;53624;0.000;0.000;2023-04-01T07:50:28;15.90;93.80
66710;DHT22;53624;0.000;0.000;2023-04-01T07:52:59;15.90;93.90
66710;DHT22;53624;0.000;0.000;2023-04-01T07:56:25;15.90;93.90
66710;DHT22;53624;0.000;0.000;2023-04-01T07:58:59;15.90;93.90
66710;DHT22;53624;0.000;0.000;2023-04-01T08:01:54;16.00;93.90
66710;DHT22;53624;0.000;0.000;2023-04-01T08:04:28;16.00;93.80
66710;DHT22;53624;0.000;0.000;2023-04-01T08:06:58;16.10;93.70
66710;DHT22;53624;0.000;0.000;2023-04-01T08:09:30;16.30;93.80
66710;DHT22;53624;0.000;0.000;2023-04-01T08:12:26;16.30;93.70
66710;DHT22;53624;0.000;0.000;2023-04-01T08:15:05;16.40;93.70
66710;DHT22;53624;0.000;0.000;2023-04-01T08:18:00;16.40;93.70
66710;DHT22;53624;0.000;0.000;2023-04-01T08:20:31;16.40;93.70
66710;DHT22;53624;0.000;0.000;2023-04-01T08:23:03;16.50;93.60
66710;DHT22;53624;0.000;0.000;2023-04-01T08:25:39;16.50;93.60
66710;DHT22;53624;0.000;0.000;2023-04-01T08:28:13;16.50;93.70
66710;DHT22;53624;0.000;0.000;2023-04-01T08:30:43;16.60;93.70
66710;DHT22;53624;0.000;0.000;2023-04-01T08:33:15;16.60;93.70
66710;DHT22;53624;0.000;0.000;2023-04-01T08:35:46;17.10;93.40
66710;DHT22;53624;0.000;0.000;2023-04-01T08:38:16;17.40;92.50
66710;DHT22;53624;0.000;0.000;2023-04-01T08:40:55;17.40;92.50
66710;DHT22;53624;0.000;0.000;2023-04-01T08:46:13;17.80;92.10
66710;DHT22;53624;0.000;0.000;2023-04-01T08:48:50;17.80;92.20
66710;DHT22;53624;0.000;0.000;2023-04-01T08:51:37;17.90;92.10
66710;DHT22;53624;0.000;0.000;2023-04-01T08:54:23;17.90;91.90
66710;DHT22;53624;0.000;0.000;2023-04-01T08:56:57;18.00;91.80
66710;DHT22;53624;0.000;0.000;2023-04-01T08:59:33;18.20;91.70
66710;DHT22;53624;0.000;0.000;2023-04-01T09:02:29;18.50;90.90
66710;DHT22;53624;0.000;0.000;2023-04-01T09:05:28;18.70;90.80
66710;DHT22;53624;0.000;0.000;2023-04-01T09:08:01;19.00;90.30
66710;DHT22;53624;0.000;0.000;2023-04-01T09:19:20;18.90;90.30
66710;DHT22;53624;0.000;0.000;2023-04-01T09:22:15;18.80;90.30
66710;DHT22;53624;0.000;0.000;2023-04-01T09:24:52;18.60;90.70
66710;DHT22;53624;0.000;0.000;2023-04-01T09:27:26;18.50;90.90
66710;DHT22;53624;0.000;0.000;2023-04-01T09:30:06;18.40;90.80
66710;DHT22;53624;0.000;0.000;2023-04-01T09:35:31;18.40;90.90
66710;DHT22;53624;0.000;0.000;2023-04-01T09:38:11;18.40;90.80
66710;DHT22;53624;0.000;0.000;2023-04-01T09:40:44;18.40;90.80
66710;DHT22;53624;0.000;0.000;2023-04-01T09:43:27;18.40;90.80
66710;DHT22;53624;0.000;0.000;2023-04-01T09:48:44;18.40;90.80
66710;DHT22;53624;0.000;0.000;2023-04-01T09:51:19;18.40;90.80
66710;DHT22;53624;0.000;0.000;2023-04-01T09:53:52;18.50;90.60
66710;DHT22;53624;0.000;0.000;2023-04-01T09:56:34;18.50;90.50
66710;DHT22;53624;0.000;0.000;2023-04-01T09:59:24;18.60;90.60
66710;DHT22;53624;0.000;0.000;2023-04-01T10:02:19;18.60;90.70
66710;DHT22;53624;0.000;0.000;2023-04-01T10:10:28;18.50;90.50
66710;DHT22;53624;0.000;0.000;2023-04-01T10:16:00;18.40;90.80
66710;DHT22;53624;0.000;0.000;2023-04-01T10:24:06;18.40;90.90
66710;DHT22;53624;0.000;0.000;2023-04-01T10:27:00;18.40;90.90
66710;DHT22;53624;0.000;0.000;2023-04-01T10:33:08;18.50;91.00
66710;DHT22;53624;0.000;0.000;2023-04-01T10:38:47;18.50;91.20
66710;DHT22;53624;0.000;0.000;2023-04-01T10:41:25;18.50;91.10
66710;DHT22;53624;0.000;0.000;2023-04-01T10:44:32;18.50;90.80
66710;DHT22;53624;0.000;0.000;2023-04-01T10:47:18;18.50;91.20
66710;DHT22;53624;0.000;0.000;2023-04-01T10:50:05;18.50;91.40
66710;DHT22;53624;0.000;0.000;2023-04-01T10:56:04;18.40;91.50
66710;DHT22;53624;0.000;0.000;2023-04-01T11:13:29;18.50;91.90
66710;DHT22;53624;0.000;0.000;2023-04-01T11:18:59;18.60;92.00
66710;DHT22;53624;0.000;0.000;2023-04-01T11:24:28;18.70;91.90
66710;DHT22;53624;0.000;0.000;2023-04-01T11:27:23;18.80;91.80
66710;DHT22;53624;0.000;0.000;2023-04-01T11:30:08;18.90;91.90
66710;DHT22;53624;0.000;0.000;2023-04-01T11:32:43;19.00;91.60
66710;DHT22;53624;0.000;0.000;2023-04-01T11:35:31;19.10;91.60
66710;DHT22;53624;0.000;0.000;2023-04-01T11:38:04;19.30;91.60
66710;DHT22;53624;0.000;0.000;2023-04-01T11:40:59;19.30;91.70
66710;DHT22;53624;0.000;0.000;2023-04-01T11:43:50;19.30;91.60
66710;DHT22;53624;0.000;0.000;2023-04-01T11:46:33;19.50;91.80
66710;DHT22;53624;0.000;0.000;2023-04-01T11:49:07;19.70;91.50
66710;DHT22;53624;0.000;0.000;2023-04-01T11:51:57;20.00;91.20
66710;DHT22;53624;0.000;0.000;2023-04-01T11:54:35;20.30;91.20
66710;DHT22;53624;0.000;0.000;2023-04-01T11:57:12;20.30;91.20
66710;DHT22;53624;0.000;0.000;2023-04-01T12:02:33;20.90;90.80
66710;DHT22;53624;0.000;0.000;2023-04-01T12:05:24;21.20;90.50
66710;DHT22;53624;0.000;0.000;2023-04-01T12:10:39;21.50;90.50
66710;DHT22;53624;0.000;0.000;2023-04-01T12:13:14;21.50;90.70
66710;DHT22;53624;0.000;0.000;2023-04-01T12:15:50;21.40;90.90
66710;DHT22;53624;0.000;0.000;2023-04-01T12:18:23;21.30;90.90
66710;DHT22;53624;0.000;0.000;2023-04-01T12:20:53;21.40;91.00
66710;DHT22;53624;0.000;0.000;2023-04-01T12:23:42;21.70;90.60
66710;DHT22;53624;0.000;0.000;2023-04-01T12:26:24;22.00;90.40
66710;DHT22;53624;0.000;0.000;2023-04-01T12:28:59;22.30;90.10
66710;DHT22;53624;0.000;0.000;2023-04-01T12:31:34;22.30;90.00
66710;DHT22;53624;0.000;0.000;2023-04-01T12:36:55;22.20;90.50
66710;DHT22;53624;0.000;0.000;2023-04-01T12:42:12;22.00;90.50
66710;DHT22;53624;0.000;0.000;2023-04-01T12:44:43;21.90;90.50
66710;DHT22;53624;0.000;0.000;2023-04-01T12:49:55;21.80;91.20
66710;DHT22;53624;0.000;0.000;2023-04-01T12:52:27;21.70;90.90
66710;DHT22;53624;0.000;0.000;2023-04-01T13:00:26;21.40;91.20
66710;DHT22;53624;0.000;0.000;2023-04-01T13:03:00;21.30;91.50
66710;DHT22;53624;0.000;0.000;2023-04-01T13:05:35;21.20;91.30
66710;DHT22;53624;0.000;0.000;2023-04-01T13:08:09;21.00;91.00
66710;DHT22;53624;0.000;0.000;2023-04-01T13:10:46;21.00;91.10
66710;DHT22;53624;0.000;0.000;2023-04-01T13:13:25;20.90;91.10
66710;DHT22;53624;0.000;0.000;2023-04-01T13:15:57;20.70;91.10
66710;DHT22;53624;0.000;0.000;2023-04-01T13:18:28;20.70;91.30
66710;DHT22;53624;0.000;0.000;2023-04-01T13:21:02;20.60;91.10
66710;DHT22;53624;0.000;0.000;2023-04-01T13:23:39;20.50;91.20
66710;DHT22;53624;0.000;0.000;2023-04-01T13:26:13;20.40;91.20
66710;DHT22;53624;0.000;0.000;2023-04-01T13:28:43;20.30;91.60
66710;DHT22;53624;0.000;0.000;2023-04-01T13:31:29;20.20;91.70
66710;DHT22;53624;0.000;0.000;2023-04-01T13:34:00;20.20;91.60
66710;DHT22;53624;0.000;0.000;2023-04-01T13:36:32;20.10;91.80
66710;DHT22;53624;0.000;0.000;2023-04-01T13:39:11;20.00;91.80
66710;DHT22;53624;0.000;0.000;2023-04-01T13:41:52;19.90;92.40
66710;DHT22;53624;0.000;0.000;2023-04-01T13:44:24;19.80;92.10
66710;DHT22;53624;0.000;0.000;2023-04-01T13:49:55;19.70;92.30
66710;DHT22;53624;0.000;0.000;2023-04-01T13:52:29;19.60;92.50
66710;DHT22;53624;0.000;0.000;2023-04-01T13:57:55;19.50;92.50
66710;DHT22;53624;0.000;0.000;2023-04-01T14:00:35;19.40;92.70
66710;DHT22;53624;0.000;0.000;2023-04-01T14:03:19;19.30;92.90
66710;DHT22;53624;0.000;0.000;2023-04-01T14:05:54;19.30;93.10
66710;DHT22;53624;0.000;0.000;2023-04-01T14:08:26;19.20;93.20
66710;DHT22;53624;0.000;0.000;2023-04-01T14:10:58;19.10;93.30
66710;DHT22;53624;0.000;0.000;2023-04-01T14:13:34;19.10;93.40
66710;DHT22;53624;0.000;0.000;2023-04-01T14:16:09;19.00;93.20
66710;DHT22;53624;0.000;0.000;2023-04-01T14:18:52;19.00;93.20
66710;DHT22;53624;0.000;0.000;2023-04-01T14:21:33;19.00;93.50
66710;DHT22;53624;0.000;0.000;2023-04-01T14:29:38;18.80;94.10
66710;DHT22;53624;0.000;0.000;2023-04-01T14:32:14;18.70;94.00
66710;DHT22;53624;0.000;0.000;2023-04-01T14:34:47;18.70;94.20
66710;DHT22;53624;0.000;0.000;2023-04-01T14:37:20;18.60;94.20
66710;DHT22;53624;0.000;0.000;2023-04-01T14:40:02;18.50;94.30
66710;DHT22;53624;0.000;0.000;2023-04-01T14:42:45;18.50;94.40
66710;DHT22;53624;0.000;0.000;2023-04-01T14:45:22;18.40;94.50
66710;DHT22;53624;0.000;0.000;2023-04-01T14:47:53;18.30;94.50
66710;DHT22;53624;0.000;0.000;2023-04-01T14:50:23;18.30;94.70
66710;DHT22;53624;0.000;0.000;2023-04-01T14:52:56;18.30;94.80
66710;DHT22;53624;0.000;0.000;2023-04-01T14:55:27;18.20;94.70
66710;DHT22;53624;0.000;0.000;2023-04-01T14:57:59;18.20;94.80
66710;DHT22;53624;0.000;0.000;2023-04-01T15:00:39;18.10;94.90
66710;DHT22;53624;0.000;0.000;2023-04-01T15:03:11;18.10;94.90
66710;DHT22;53624;0.000;0.000;2023-04-01T15:05:44;18.10;94.80
66710;DHT22;53624;0.000;0.000;2023-04-01T15:08:16;18.00;94.70
66710;DHT22;53624;0.000;0.000;2023-04-01T15:10:58;18.10;94.60
66710;DHT22;53624;0.000;0.000;2023-04-01T15:13:35;18.10;94.80
66710;DHT22;53624;0.000;0.000;2023-04-01T15:16:08;18.10;94.90
66710;DHT22;53624;0.000;0.000;2023-04-01T15:18:41;18.10;94.90
66710;DHT22;53624;0.000;0.000;2023-04-01T15:21:18;18.10;94.90
66710;DHT22;53624;0.000;0.000;2023-04-01T15:23:57;18.10;95.00
66710;DHT22;53624;0.000;0.000;2023-04-01T15:26:30;18.10;94.90
66710;DHT22;53624;0.000;0.000;2023-04-01T15:29:04;18.20;94.90
66710;DHT22;53624;0.000;0.000;2023-04-01T15:31:36;18.20;94.90
66710;DHT22;53624;0.000;0.000;2023-04-01T15:34:17;18.20;94.80
66710;DHT22;53624;0.000;0.000;2023-04-01T15:36:51;18.20;94.90
66710;DHT22;53624;0.000;0.000;2023-04-01T15:39:19;18.30;95.00
66710;DHT22;53624;0.000;0.000;2023-04-01T15:41:55;18.30;95.00
66710;DHT22;53624;0.000;0.000;2023-04-01T15:44:35;18.20;95.10
66710;DHT22;53624;0.000;0.000;2023-04-01T15:47:08;18.20;95.20
66710;DHT22;53624;0.000;0.000;2023-04-01T15:49:52;18.10;95.20
66710;DHT22;53624;0.000;0.000;2023-04-01T15:52:21;18.10;95.40
66710;DHT22;53624;0.000;0.000;2023-04-01T15:57:34;18.10;95.40
66710;DHT22;53624;0.000;0.000;2023-04-01T16:00:19;18.10;95.20
66710;DHT22;53624;0.000;0.000;2023-04-01T16:02:51;18.10;95.40
66710;DHT22;53624;0.000;0.000;2023-04-01T16:05:29;18.10;95.40
66710;DHT22;53624;0.000;0.000;2023-04-01T16:08:05;18.00;95.20
66710;DHT22;53624;0.000;0.000;2023-04-01T16:10:49;18.00;95.00
66710;DHT22;53624;0.000;0.000;2023-04-01T16:13:24;18.00;95.10
66710;DHT22;53624;0.000;0.000;2023-04-01T16:15:57;17.90;95.00
66710;DHT22;53624;0.000;0.000;2023-04-01T16:18:32;17.90;95.20
66710;DHT22;53624;0.000;0.000;2023-04-01T16:21:05;17.90;95.20
66710;DHT22;53624;0.000;0.000;2023-04-01T16:23:35;17.90;95.10
66710;DHT22;53624;0.000;0.000;2023-04-01T16:26:05;17.90;95.20
66710;DHT22;53624;0.000;0.000;2023-04-01T16:28:34;17.90;95.30
66710;DHT22;53624;0.000;0.000;2023-04-01T16:31:05;17.80;95.30
66710;DHT22;53624;0.000;0.000;2023-04-01T16:33:40;17.80;95.50
66710;DHT22;53624;0.000;0.000;2023-04-01T16:36:10;17.80;95.40
66710;DHT22;53624;0.000;0.000;2023-04-01T16:38:40;17.70;94.60
66710;DHT22;53624;0.000;0.000;2023-04-01T16:41:11;17.70;94.30
66710;DHT22;53624;0.000;0.000;2023-04-01T16:43:42;17.60;94.40
66710;DHT22;53624;0.000;0.000;2023-04-01T16:46:20;17.60;94.60
66710;DHT22;53624;0.000;0.000;2023-04-01T16:48:55;17.60;94.90
66710;DHT22;53624;0.000;0.000;2023-04-01T16:51:26;17.50;95.00
66710;DHT22;53624;0.000;0.000;2023-04-01T16:54:02;17.50;95.10
66710;DHT22;53624;0.000;0.000;2023-04-01T16:56:36;17.40;95.10
66710;DHT22;53624;0.000;0.000;2023-04-01T16:59:07;17.40;95.20
66710;DHT22;53624;0.000;0.000;2023-04-01T17:01:40;17.40;95.30
66710;DHT22;53624;0.000;0.000;2023-04-01T17:04:12;17.30;95.40
66710;DHT22;53624;0.000;0.000;2023-04-01T17:06:43;17.30;95.40
66710;DHT22;53624;0.000;0.000;2023-04-01T17:09:16;17.30;95.50
66710;DHT22;53624;0.000;0.000;2023-04-01T17:11:49;17.20;95.60
66710;DHT22;53624;0.000;0.000;2023-04-01T17:14:23;17.20;95.70
66710;DHT22;53624;0.000;0.000;2023-04-01T17:16:54;17.20;95.80
66710;DHT22;53624;0.000;0.000;2023-04-01T17:19:37;17.20;95.80
66710;DHT22;53624;0.000;0.000;2023-04-01T17:22:12;17.10;95.90
66710;DHT22;53624;0.000;0.000;2023-04-01T17:24:48;17.10;95.90
66710;DHT22;53624;0.000;0.000;2023-04-01T17:27:22;17.00;95.90
66710;DHT22;53624;0.000;0.000;2023-04-01T17:30:03;17.00;96.00
66710;DHT22;53624;0.000;0.000;2023-04-01T17:32:37;17.00;96.10
66710;DHT22;53624;0.000;0.000;2023-04-01T17:35:10;17.00;96.10
66710;DHT22;53624;0.000;0.000;2023-04-01T17:37:41;17.00;96.20
66710;DHT22;53624;0.000;0.000;2023-04-01T17:40:20;16.90;96.20
66710;DHT22;53624;0.000;0.000;2023-04-01T17:42:50;16.90;96.30
66710;DHT22;53624;0.000;0.000;2023-04-01T17:45:21;16.90;96.30
66710;DHT22;53624;0.000;0.000;2023-04-01T17:47:52;16.80;96.30
66710;DHT22;53624;0.000;0.000;2023-04-01T17:50:25;16.80;96.30
66710;DHT22;53624;0.000;0.000;2023-04-01T17:53:00;16.80;96.40
66710;DHT22;53624;0.000;0.000;2023-04-01T17:55:36;16.70;96.40
66710;DHT22;53624;0.000;0.000;2023-04-01T17:58:07;16.70;96.40
66710;DHT22;53624;0.000;0.000;2023-04-01T18:00:38;16.70;96.50
66710;DHT22;53624;0.000;0.000;2023-04-01T18:03:17;16.70;96.50
66710;DHT22;53624;0.000;0.000;2023-04-01T18:05:55;16.70;96.50
66710;DHT22;53624;0.000;0.000;2023-04-01T18:08:27;16.60;96.50
66710;DHT22;53624;0.000;0.000;2023-04-01T18:11:00;16.60;96.60